Time;durP1;ratioP1;P1;durP2;ratioP2;P2;SDS_P1;SDS_P2;PMS_P1;PMS_P2;Temp;Humidity;BMP_temperature;BMP_pressure;BME280_temperature;BME280_humidity;BME280_pressure;Samples;Min_cycle;Max_cycle;Signal;HPM_P1;HPM_P2
2023/04/27 00:01:13;;;;;;;3.33;1.70;;;;;;;;;;5028426;28;20450;-65
2023/04/27 00:03:44;;;;;;;4.30;1.70;;;;;;;;;;5028695;28;20454;-64
2023/04/27 00:06:11;;;;;;;7.50;1.67;;;;;;;;;;5029050;28;20530;-64
2023/04/27 00:08:38;;;;;;;5.87;1.63;;;;;;;;;;5027866;28;20437;-64
2023/04/27 00:11:06;;;;;;;3.47;1.47;;;;;;;;;;5019010;28;20436;-64
2023/04/27 00:13:32;;;;;;;4.57;1.60;;;;;;;;;;5050296;28;20552;-64
2023/04/27 00:16:02;;;;;;;5.00;1.30;;;;;;;;;;5041835;28;20434;-64
2023/04/27 00:18:29;;;;;;;4.53;1.83;;;;;;;;;;5029635;28;20477;-64
2023/04/27 00:20:56;;;;;;;4.23;1.30;;;;;;;;;;5029700;28;20960;-64
2023/04/27 00:23:23;;;;;;;3.20;1.47;;;;;;;;;;5035477;28;20429;-63
2023/04/27 00:25:49;;;;;;;7.10;1.73;;;;;;;;;;5023122;28;20445;-64
2023/04/27 00:28:16;;;;;;;4.47;1.50;;;;;;;;;;5010437;28;20446;-64
2023/04/27 00:30:43;;;;;;;7.90;1.57;;;;;;;;;;5009835;28;20442;-64
2023/04/27 00:33:10;;;;;;;6.10;1.83;;;;;;;;;;5009057;28;20486;-64
2023/04/27 00:35:39;;;;;;;3.53;1.47;;;;;;;;;;5009936;28;20439;-64
2023/04/27 00:38:06;;;;;;;8.13;1.87;;;;;;;;;;5009795;28;20493;-64
2023/04/27 00:40:33;;;;;;;7.23;2.43;;;;;;;;;;5036093;28;20445;-64
2023/04/27 00:42:59;;;;;;;5.90;1.73;;;;;;;;;;5029717;28;20481;-64
2023/04/27 00:45:26;;;;;;;4.27;2.00;;;;;;;;;;4993369;28;20455;-64
2023/04/27 00:47:53;;;;;;;6.20;2.37;;;;;;;;;;4992112;28;20459;-64
2023/04/27 00:50:23;;;;;;;5.13;2.20;;;;;;;;;;5020594;28;20449;-64
2023/04/27 00:52:50;;;;;;;5.43;1.90;;;;;;;;;;5011273;28;20464;-64
2023/04/27 00:55:16;;;;;;;7.40;1.90;;;;;;;;;;5012031;28;20442;-64
2023/04/27 00:57:43;;;;;;;6.07;2.10;;;;;;;;;;5029456;28;20430;-64
2023/04/27 01:00:10;;;;;;;3.20;1.73;;;;;;;;;;5031816;28;20526;-64
2023/04/27 01:02:37;;;;;;;5.53;1.53;;;;;;;;;;5009379;28;20986;-64
2023/04/27 01:05:04;;;;;;;8.13;2.07;;;;;;;;;;5015073;28;20450;-64
2023/04/27 01:07:31;;;;;;;7.40;2.17;;;;;;;;;;5029334;28;20434;-64
2023/04/27 01:09:57;;;;;;;5.97;2.23;;;;;;;;;;5011350;28;20438;-64
2023/04/27 01:12:24;;;;;;;4.13;2.00;;;;;;;;;;5026717;28;20453;-64
2023/04/27 01:14:52;;;;;;;5.63;2.00;;;;;;;;;;5026321;28;20815;-64
2023/04/27 01:17:19;;;;;;;5.87;2.23;;;;;;;;;;5005309;28;20972;-64
2023/04/27 01:19:46;;;;;;;6.67;2.00;;;;;;;;;;5025184;28;20447;-64
2023/04/27 01:22:14;;;;;;;8.50;2.10;;;;;;;;;;5045443;28;20468;-64
2023/04/27 01:24:40;;;;;;;4.70;1.83;;;;;;;;;;5027488;28;20457;-64
2023/04/27 01:27:07;;;;;;;3.27;1.50;;;;;;;;;;5009154;28;20454;-64
2023/04/27 01:29:39;;;;;;;7.00;2.07;;;;;;;;;;5010950;28;20497;-64
2023/04/27 01:32:07;;;;;;;8.83;2.40;;;;;;;;;;5028186;28;20840;-64
2023/04/27 01:34:34;;;;;;;7.13;2.87;;;;;;;;;;5027559;28;20589;-64
2023/04/27 01:37:01;;;;;;;6.37;1.93;;;;;;;;;;5028742;28;20431;-64
2023/04/27 01:39:28;;;;;;;7.53;2.13;;;;;;;;;;5028148;28;20461;-64
2023/04/27 01:41:54;;;;;;;7.57;2.10;;;;;;;;;;5028224;28;20488;-64
2023/04/27 02:17:00;;;;;;;7.47;2.20;;;;;;;;;;5026092;28;20481;-64
2023/04/27 02:19:28;;;;;;;4.80;2.03;;;;;;;;;;5028225;28;20418;-64
2023/04/27 02:21:55;;;;;;;5.77;2.17;;;;;;;;;;5008971;28;20586;-64
2023/04/27 02:24:23;;;;;;;7.10;2.60;;;;;;;;;;5009554;28;20957;-64
2023/04/27 02:26:49;;;;;;;6.43;2.30;;;;;;;;;;5026026;28;20449;-64
2023/04/27 02:29:17;;;;;;;6.63;2.40;;;;;;;;;;5009585;28;20473;-64
2023/04/27 02:31:44;;;;;;;8.00;3.25;;;;;;;;;;5025694;28;20456;-63
2023/04/27 02:34:11;;;;;;;5.63;3.03;;;;;;;;;;5008770;28;20223;-63
2023/04/27 02:36:38;;;;;;;4.33;2.33;;;;;;;;;;5026516;28;20877;-63
2023/04/27 02:39:05;;;;;;;5.90;2.80;;;;;;;;;;5041948;28;20463;-63
2023/04/27 02:41:31;;;;;;;4.57;2.40;;;;;;;;;;5026666;28;20442;-64
2023/04/27 02:43:59;;;;;;;7.33;2.67;;;;;;;;;;5027815;28;21266;-63
2023/04/27 02:46:26;;;;;;;6.93;2.47;;;;;;;;;;5009204;28;20459;-64
2023/04/27 02:48:56;;;;;;;5.87;2.20;;;;;;;;;;5042826;28;20500;-63
2023/04/27 02:51:23;;;;;;;8.40;2.73;;;;;;;;;;5026077;28;21344;-63
2023/04/27 02:53:51;;;;;;;6.00;2.70;;;;;;;;;;5009790;28;20481;-63
2023/04/27 02:56:18;;;;;;;6.73;2.77;;;;;;;;;;5010080;28;20496;-64
2023/04/27 02:58:44;;;;;;;8.93;3.10;;;;;;;;;;5027356;28;20472;-63
2023/04/27 03:01:11;;;;;;;6.57;3.00;;;;;;;;;;5027528;28;20430;-64
2023/04/27 03:03:38;;;;;;;5.77;2.77;;;;;;;;;;5026527;28;20446;-64
2023/04/27 03:06:05;;;;;;;8.53;2.87;;;;;;;;;;5004122;28;20451;-63
2023/04/27 03:08:32;;;;;;;13.00;2.97;;;;;;;;;;4999712;28;20463;-64
2023/04/27 03:10:59;;;;;;;9.97;3.17;;;;;;;;;;5009870;28;20446;-63
2023/04/27 03:13:27;;;;;;;8.20;2.90;;;;;;;;;;5025914;28;20545;-64
2023/04/27 03:15:53;;;;;;;7.07;2.93;;;;;;;;;;5026747;28;20540;-63
2023/04/27 03:18:21;;;;;;;7.93;3.13;;;;;;;;;;5041734;28;20477;-65
2023/04/27 03:20:48;;;;;;;8.67;2.87;;;;;;;;;;5009638;28;20811;-63
2023/04/27 03:23:15;;;;;;;6.57;2.77;;;;;;;;;;5008222;28;20454;-67
2023/04/27 03:25:41;;;;;;;8.20;3.20;;;;;;;;;;4989979;28;20498;-63
2023/04/27 03:28:08;;;;;;;10.70;3.50;;;;;;;;;;5007860;28;20438;-63
2023/04/27 03:30:37;;;;;;;7.63;3.20;;;;;;;;;;5008359;28;20807;-65
2023/04/27 03:33:06;;;;;;;8.33;3.20;;;;;;;;;;5012201;28;20477;-65
2023/04/27 03:35:32;;;;;;;9.77;3.27;;;;;;;;;;5038168;28;20537;-67
2023/04/27 03:37:59;;;;;;;8.13;3.60;;;;;;;;;;5026405;28;20459;-65
2023/04/27 03:40:28;;;;;;;9.73;2.90;;;;;;;;;;5010776;28;20447;-66
2023/04/27 03:42:54;;;;;;;5.77;2.83;;;;;;;;;;5010575;28;20438;-65
2023/04/27 03:45:24;;;;;;;10.40;3.30;;;;;;;;;;5011174;28;20456;-66
2023/04/27 03:47:52;;;;;;;7.13;3.17;;;;;;;;;;5011223;28;20434;-66
2023/04/27 03:50:19;;;;;;;8.53;3.10;;;;;;;;;;5019545;28;20511;-67
2023/04/27 03:52:48;;;;;;;8.90;3.30;;;;;;;;;;5011571;28;20527;-66
2023/04/27 03:55:17;;;;;;;6.57;2.77;;;;;;;;;;5023124;28;20437;-64
2023/04/27 03:57:44;;;;;;;5.50;3.47;;;;;;;;;;5013489;28;20783;-64
2023/04/27 04:00:11;;;;;;;6.23;3.27;;;;;;;;;;5001027;28;21307;-64
2023/04/27 04:02:39;;;;;;;6.67;2.93;;;;;;;;;;5010892;28;20969;-67
2023/04/27 04:05:07;;;;;;;13.00;3.20;;;;;;;;;;5010904;28;20441;-65
2023/04/27 04:07:34;;;;;;;7.30;2.80;;;;;;;;;;5029413;28;20439;-70
2023/04/27 04:10:01;;;;;;;7.07;3.00;;;;;;;;;;5009720;28;20445;-67
2023/04/27 04:12:28;;;;;;;7.27;2.90;;;;;;;;;;5028561;28;20430;-65
2023/04/27 04:14:55;;;;;;;8.87;2.80;;;;;;;;;;5034391;28;20484;-66
2023/04/27 04:17:22;;;;;;;9.40;2.70;;;;;;;;;;5011011;28;20477;-67
2023/04/27 04:19:50;;;;;;;6.67;2.97;;;;;;;;;;5010453;28;20452;-66
2023/04/27 04:22:16;;;;;;;5.47;2.70;;;;;;;;;;5029180;28;20445;-66
2023/04/27 04:24:44;;;;;;;8.63;2.83;;;;;;;;;;5030502;28;20452;-64
2023/04/27 04:27:11;;;;;;;8.80;2.60;;;;;;;;;;5012803;28;20466;-66
2023/04/27 04:29:38;;;;;;;6.63;2.33;;;;;;;;;;5013575;28;20441;-65
2023/04/27 04:32:06;;;;;;;8.17;2.63;;;;;;;;;;4993611;28;20219;-65
2023/04/27 04:34:33;;;;;;;8.80;2.87;;;;;;;;;;5007965;28;20473;-62
2023/04/27 04:37:00;;;;;;;6.40;2.70;;;;;;;;;;5019275;28;20234;-63
2023/04/27 04:39:32;;;;;;;5.07;1.47;;;;;;;;;;5016724;28;20533;-63
2023/04/27 04:41:58;;;;;;;3.63;2.47;;;;;;;;;;5012937;28;20199;-63
2023/04/27 04:44:28;;;;;;;6.07;2.37;;;;;;;;;;5021890;28;20509;-63
2023/04/27 04:46:56;;;;;;;9.07;2.50;;;;;;;;;;5010918;28;20457;-62
2023/04/27 04:49:25;;;;;;;8.70;2.60;;;;;;;;;;5012377;28;20431;-63
2023/04/27 04:51:51;;;;;;;4.63;2.10;;;;;;;;;;5030419;28;20454;-62
2023/04/27 04:54:18;;;;;;;5.37;2.60;;;;;;;;;;5030825;28;20494;-63
2023/04/27 04:56:46;;;;;;;6.90;2.90;;;;;;;;;;5032964;28;20782;-63
2023/04/27 04:59:14;;;;;;;5.57;2.60;;;;;;;;;;5013120;28;20445;-65
2023/04/27 05:01:41;;;;;;;6.23;2.57;;;;;;;;;;5001227;28;20554;-63
2023/04/27 05:04:07;;;;;;;9.50;3.13;;;;;;;;;;5021194;28;20191;-67
2023/04/27 05:06:35;;;;;;;7.57;2.33;;;;;;;;;;5017208;28;20180;-66
2023/04/27 05:09:05;;;;;;;8.77;2.90;;;;;;;;;;4989813;28;20194;-66
2023/04/27 05:11:32;;;;;;;7.37;2.97;;;;;;;;;;5025964;28;20227;-66
2023/04/27 05:14:00;;;;;;;5.10;2.10;;;;;;;;;;5026809;28;20230;-67
2023/04/27 05:16:27;;;;;;;6.80;2.53;;;;;;;;;;5027035;28;20203;-67
2023/04/27 05:18:54;;;;;;;8.63;2.67;;;;;;;;;;5039911;28;20236;-67
2023/04/27 05:21:21;;;;;;;8.47;2.63;;;;;;;;;;5035924;28;20479;-68
2023/04/27 05:23:48;;;;;;;6.83;2.50;;;;;;;;;;5021536;28;20191;-65
2023/04/27 05:26:15;;;;;;;6.33;2.10;;;;;;;;;;5036139;28;20654;-65
2023/04/27 05:28:43;;;;;;;8.70;2.70;;;;;;;;;;5017758;28;20465;-65
2023/04/27 05:31:09;;;;;;;5.60;2.70;;;;;;;;;;5022526;28;20213;-66
2023/04/27 05:33:36;;;;;;;5.20;2.50;;;;;;;;;;5021959;28;20242;-66
2023/04/27 05:36:03;;;;;;;7.73;3.27;;;;;;;;;;5026213;28;20207;-66
2023/04/27 05:38:32;;;;;;;7.00;2.33;;;;;;;;;;5022419;28;20204;-65
2023/04/27 05:40:58;;;;;;;7.60;2.33;;;;;;;;;;5022101;28;20191;-65
2023/04/27 05:43:26;;;;;;;6.43;2.40;;;;;;;;;;5027021;28;20196;-65
2023/04/27 05:45:53;;;;;;;4.57;2.30;;;;;;;;;;5026839;28;20187;-65
2023/04/27 05:48:20;;;;;;;4.57;2.33;;;;;;;;;;5007802;28;20184;-65
2023/04/27 05:50:46;;;;;;;6.33;2.30;;;;;;;;;;5008422;28;20192;-65
2023/04/27 05:53:13;;;;;;;3.93;1.90;;;;;;;;;;5012854;28;20188;-66
2023/04/27 05:55:41;;;;;;;6.43;2.40;;;;;;;;;;5034153;28;20214;-67
2023/04/27 05:58:09;;;;;;;8.10;2.30;;;;;;;;;;5038805;28;20234;-69
2023/04/27 06:00:37;;;;;;;6.17;2.00;;;;;;;;;;5034128;28;20193;-67
2023/04/27 06:03:04;;;;;;;11.13;2.60;;;;;;;;;;5026514;28;20985;-66
2023/04/27 06:05:33;;;;;;;4.23;2.57;;;;;;;;;;5026024;28;20655;-66
2023/04/27 06:08:00;;;;;;;7.07;2.07;;;;;;;;;;5026977;28;21003;-67
2023/04/27 06:10:27;;;;;;;6.13;2.10;;;;;;;;;;5026632;28;20206;-68
2023/04/27 06:12:54;;;;;;;5.03;2.20;;;;;;;;;;5025382;28;20199;-67
2023/04/27 06:15:21;;;;;;;4.13;2.13;;;;;;;;;;5026021;28;20217;-68
2023/04/27 06:17:47;;;;;;;7.37;2.30;;;;;;;;;;5008914;28;20262;-66
2023/04/27 06:20:14;;;;;;;5.67;2.10;;;;;;;;;;5026222;28;20199;-65
2023/04/27 06:22:41;;;;;;;8.23;2.37;;;;;;;;;;5026850;28;20202;-68
2023/04/27 06:25:08;;;;;;;7.23;2.30;;;;;;;;;;5021719;28;20195;-69
2023/04/27 06:27:40;;;;;;;6.37;2.17;;;;;;;;;;5026805;28;20187;-68
2023/04/27 06:30:07;;;;;;;6.50;2.10;;;;;;;;;;5014342;28;20187;-67
2023/04/27 06:32:34;;;;;;;6.33;2.20;;;;;;;;;;5026429;28;20681;-66
2023/04/27 06:35:01;;;;;;;6.37;2.30;;;;;;;;;;5012846;28;20211;-68
2023/04/27 06:37:28;;;;;;;7.90;2.23;;;;;;;;;;5017726;28;20318;-67
2023/04/27 06:39:55;;;;;;;6.00;2.80;;;;;;;;;;5026056;28;20234;-68
2023/04/27 06:42:21;;;;;;;6.77;2.50;;;;;;;;;;5026465;28;20682;-67
2023/04/27 06:44:48;;;;;;;4.60;2.50;;;;;;;;;;5025326;28;20202;-66
2023/04/27 06:47:15;;;;;;;8.37;2.47;;;;;;;;;;5025407;28;20257;-68
2023/04/27 06:49:41;;;;;;;7.10;2.40;;;;;;;;;;5026388;28;20202;-67
2023/04/27 06:52:09;;;;;;;4.27;2.37;;;;;;;;;;5026465;28;20176;-66
2023/04/27 06:54:36;;;;;;;7.10;2.10;;;;;;;;;;5026137;28;20286;-66
2023/04/27 06:57:05;;;;;;;6.20;2.60;;;;;;;;;;5026300;28;20706;-67
2023/04/27 06:59:32;;;;;;;6.30;2.10;;;;;;;;;;5024853;28;20202;-68
2023/04/27 07:01:58;;;;;;;5.87;2.50;;;;;;;;;;5026200;28;20215;-67
2023/04/27 07:04:27;;;;;;;5.10;2.40;;;;;;;;;;5020760;28;20195;-67
2023/04/27 07:06:55;;;;;;;4.10;2.40;;;;;;;;;;5011421;28;20188;-66
2023/04/27 07:09:21;;;;;;;6.23;2.37;;;;;;;;;;5027314;28;20192;-66
2023/04/27 07:11:53;;;;;;;5.70;2.47;;;;;;;;;;5018900;28;20671;-67
2023/04/27 07:14:20;;;;;;;6.73;2.50;;;;;;;;;;5022900;28;20199;-68
2023/04/27 07:16:47;;;;;;;6.87;2.90;;;;;;;;;;5029355;28;20258;-68
2023/04/27 07:19:15;;;;;;;5.37;2.03;;;;;;;;;;5029482;28;20641;-67
2023/04/27 07:21:42;;;;;;;4.50;2.20;;;;;;;;;;5029500;28;20702;-67
2023/04/27 07:24:09;;;;;;;8.93;2.37;;;;;;;;;;5017984;28;20192;-67
2023/04/27 07:26:36;;;;;;;5.40;1.70;;;;;;;;;;5028564;28;20647;-67
2023/04/27 07:29:05;;;;;;;4.20;1.53;;;;;;;;;;5026672;28;20556;-67
2023/04/27 07:31:51;;;;;;;4.03;1.80;;;;;;;;;;5028045;28;20283;-67
2023/04/27 07:34:19;;;;;;;2.97;1.90;;;;;;;;;;5032241;28;20261;-67
2023/04/27 07:36:45;;;;;;;4.67;1.27;;;;;;;;;;5032274;28;20218;-67
2023/04/27 07:39:12;;;;;;;2.17;1.50;;;;;;;;;;5032185;28;20913;-68
2023/04/27 07:41:40;;;;;;;3.83;1.33;;;;;;;;;;5020178;28;20653;-67
2023/04/27 07:44:08;;;;;;;3.67;1.50;;;;;;;;;;5029442;28;20183;-66
2023/04/27 07:46:37;;;;;;;5.93;1.87;;;;;;;;;;5026979;28;20187;-64
2023/04/27 07:49:04;;;;;;;4.30;1.50;;;;;;;;;;5029399;28;20602;-66
2023/04/27 07:51:33;;;;;;;3.07;1.30;;;;;;;;;;5028477;28;20298;-67
2023/04/27 07:54:01;;;;;;;2.90;1.20;;;;;;;;;;5034521;28;20191;-68
2023/04/27 07:56:29;;;;;;;3.80;1.53;;;;;;;;;;5010652;28;20278;-66
2023/04/27 07:58:55;;;;;;;4.73;1.40;;;;;;;;;;5029316;28;20188;-68
2023/04/27 08:01:22;;;;;;;2.87;1.40;;;;;;;;;;5029201;28;20605;-66
2023/04/27 08:03:50;;;;;;;4.07;1.57;;;;;;;;;;5029168;28;20184;-66
2023/04/27 08:06:18;;;;;;;4.47;1.20;;;;;;;;;;5026954;28;20214;-66
2023/04/27 08:08:45;;;;;;;3.47;0.93;;;;;;;;;;5009777;28;20195;-66
2023/04/27 08:11:12;;;;;;;3.50;1.40;;;;;;;;;;5031045;28;20474;-66
2023/04/27 08:13:38;;;;;;;1.63;0.80;;;;;;;;;;5031575;28;20188;-67
2023/04/27 08:16:05;;;;;;;2.07;1.10;;;;;;;;;;5031635;28;20242;-67
2023/04/27 08:18:34;;;;;;;2.30;1.20;;;;;;;;;;5031716;28;20233;-67
2023/04/27 08:21:03;;;;;;;2.13;1.20;;;;;;;;;;5031881;28;20217;-67
2023/04/27 08:23:31;;;;;;;1.50;1.00;;;;;;;;;;5031595;28;20188;-66
2023/04/27 08:25:58;;;;;;;1.37;0.90;;;;;;;;;;5025053;28;20557;-66
2023/04/27 08:28:25;;;;;;;1.37;1.00;;;;;;;;;;5028833;28;20184;-68
2023/04/27 08:30:52;;;;;;;2.93;1.40;;;;;;;;;;5031413;28;20610;-68
2023/04/27 08:33:19;;;;;;;3.03;1.40;;;;;;;;;;5029439;28;20270;-69
2023/04/27 08:35:45;;;;;;;3.83;1.33;;;;;;;;;;5027659;28;20586;-68
2023/04/27 08:38:12;;;;;;;2.17;1.20;;;;;;;;;;5027659;28;20196;-69
2023/04/27 08:40:42;;;;;;;3.67;1.80;;;;;;;;;;5000160;28;20744;-67
2023/04/27 08:43:09;;;;;;;3.47;1.10;;;;;;;;;;5047269;28;20201;-68
2023/04/27 08:45:36;;;;;;;3.57;1.40;;;;;;;;;;5035398;28;20187;-69
2023/04/27 08:48:03;;;;;;;2.77;1.23;;;;;;;;;;5043198;28;20196;-66
2023/04/27 08:50:30;;;;;;;4.17;1.40;;;;;;;;;;5026591;28;20199;-70
2023/04/27 08:52:58;;;;;;;4.23;1.53;;;;;;;;;;5025573;28;20266;-69
2023/04/27 08:55:25;;;;;;;3.30;1.40;;;;;;;;;;5030247;28;20206;-68
2023/04/27 08:57:53;;;;;;;4.03;1.80;;;;;;;;;;5030184;28;20199;-68
2023/04/27 09:00:19;;;;;;;3.00;1.40;;;;;;;;;;5027601;28;20959;-67
2023/04/27 09:02:46;;;;;;;3.83;1.37;;;;;;;;;;5039994;28;20191;-68
2023/04/27 09:05:14;;;;;;;5.73;1.80;;;;;;;;;;5009715;28;20183;-68
2023/04/27 09:07:41;;;;;;;2.70;1.40;;;;;;;;;;5025324;28;20198;-69
2023/04/27 09:10:09;;;;;;;3.70;1.53;;;;;;;;;;5027882;28;20527;-67
2023/04/27 09:12:36;;;;;;;11.93;5.33;;;;;;;;;;5041099;28;20245;-68
2023/04/27 09:15:04;;;;;;;6.00;3.20;;;;;;;;;;5040846;28;20221;-68
2023/04/27 09:17:37;;;;;;;7.10;2.47;;;;;;;;;;5010824;28;20235;-68
2023/04/27 09:20:07;;;;;;;8.00;4.83;;;;;;;;;;5026658;28;20334;-68
2023/04/27 09:22:44;;;;;;;5.63;4.47;;;;;;;;;;5010950;28;20187;-69
2023/04/27 09:25:25;;;;;;;6.13;2.50;;;;;;;;;;4993856;28;20270;-69
2023/04/27 09:27:54;;;;;;;3.23;1.80;;;;;;;;;;5010262;28;20277;-67
2023/04/27 09:30:21;;;;;;;5.53;2.90;;;;;;;;;;5028823;28;20559;-68
2023/04/27 09:32:52;;;;;;;3.87;2.50;;;;;;;;;;5009175;28;20207;-67
2023/04/27 09:35:23;;;;;;;5.23;1.70;;;;;;;;;;5008427;28;20216;-71
2023/04/27 09:37:51;;;;;;;4.93;2.00;;;;;;;;;;5023593;28;20195;-68
2023/04/27 09:40:18;;;;;;;2.60;1.47;;;;;;;;;;5029475;28;20199;-67
2023/04/27 09:42:45;;;;;;;3.13;1.30;;;;;;;;;;5046006;28;20230;-69
2023/04/27 09:45:12;;;;;;;2.97;1.27;;;;;;;;;;5021260;28;20195;-66
2023/04/27 09:47:39;;;;;;;3.83;1.80;;;;;;;;;;5010138;28;20200;-69
2023/04/27 09:50:05;;;;;;;2.67;1.70;;;;;;;;;;5009369;28;20200;-69
2023/04/27 09:52:32;;;;;;;3.50;2.73;;;;;;;;;;4993455;28;20219;-69
2023/04/27 09:55:00;;;;;;;4.33;2.20;;;;;;;;;;5008777;28;20215;-68
2023/04/27 09:57:43;;;;;;;3.50;2.10;;;;;;;;;;4994192;28;20187;-69
2023/04/27 10:00:18;;;;;;;4.50;2.30;;;;;;;;;;5023656;28;20257;-68
2023/04/27 10:02:58;;;;;;;4.30;2.60;;;;;;;;;;5003413;28;20246;-68
2023/04/27 10:05:32;;;;;;;4.67;2.20;;;;;;;;;;5010488;28;20226;-67
2023/04/27 10:07:59;;;;;;;4.90;1.60;;;;;;;;;;5027176;28;20314;-66
2023/04/27 10:10:27;;;;;;;3.27;1.60;;;;;;;;;;5008955;28;20628;-68
2023/04/27 10:12:54;;;;;;;1.43;0.83;;;;;;;;;;5008885;28;20199;-65
2023/04/27 10:15:24;;;;;;;3.23;1.00;;;;;;;;;;5008998;28;20690;-66
2023/04/27 10:17:57;;;;;;;2.20;1.10;;;;;;;;;;5026973;28;20285;-66
2023/04/27 10:20:29;;;;;;;2.47;1.00;;;;;;;;;;5027140;28;20196;-65
2023/04/27 10:22:57;;;;;;;1.50;0.87;;;;;;;;;;5026888;28;20918;-67
2023/04/27 10:25:25;;;;;;;1.50;0.80;;;;;;;;;;5026031;28;20553;-64
2023/04/27 10:27:52;;;;;;;3.37;0.77;;;;;;;;;;5009661;28;20433;-66
2023/04/27 10:30:19;;;;;;;2.97;1.13;;;;;;;;;;5033154;28;20468;-66
2023/04/27 10:32:56;;;;;;;3.07;1.33;;;;;;;;;;5035081;28;20457;-67
2023/04/27 10:35:43;;;;;;;2.70;1.40;;;;;;;;;;5020712;28;20246;-64
2023/04/27 10:38:16;;;;;;;2.20;0.97;;;;;;;;;;5027451;28;20274;-64
2023/04/27 10:40:44;;;;;;;2.83;1.27;;;;;;;;;;5028838;28;20218;-63
2023/04/27 10:43:12;;;;;;;2.60;1.23;;;;;;;;;;5007560;28;20227;-64
2023/04/27 10:45:39;;;;;;;3.20;1.10;;;;;;;;;;5025624;28;20195;-63
2023/04/27 10:48:08;;;;;;;4.23;1.40;;;;;;;;;;5011475;28;21115;-67
2023/04/27 10:50:36;;;;;;;4.63;1.07;;;;;;;;;;5021961;28;20190;-64
2023/04/27 10:53:03;;;;;;;4.23;1.17;;;;;;;;;;5014219;28;20226;-66
2023/04/27 10:55:30;;;;;;;4.27;1.30;;;;;;;;;;5031724;28;20215;-66
2023/04/27 10:57:57;;;;;;;2.93;1.17;;;;;;;;;;5031937;28;20198;-66
2023/04/27 11:00:25;;;;;;;4.47;1.30;;;;;;;;;;5031417;28;20940;-65
2023/04/27 11:02:52;;;;;;;3.90;1.80;;;;;;;;;;5031108;28;20242;-66
2023/04/27 11:05:20;;;;;;;2.77;1.40;;;;;;;;;;4988323;28;20241;-71
2023/04/27 11:07:47;;;;;;;3.37;1.30;;;;;;;;;;5008823;28;20210;-67
2023/04/27 11:10:18;;;;;;;3.20;1.20;;;;;;;;;;5016667;28;20202;-69
2023/04/27 11:12:45;;;;;;;4.80;1.80;;;;;;;;;;4995642;28;20195;-67
2023/04/27 11:15:13;;;;;;;2.93;1.20;;;;;;;;;;5028571;28;20223;-67
2023/04/27 11:17:40;;;;;;;2.90;1.20;;;;;;;;;;5027637;28;20285;-68
2023/04/27 11:20:07;;;;;;;3.57;1.10;;;;;;;;;;5041026;28;20208;-66
2023/04/27 11:22:45;;;;;;;3.73;1.30;;;;;;;;;;5030036;28;20691;-66
2023/04/27 11:25:12;;;;;;;2.23;1.10;;;;;;;;;;5028550;28;20238;-67
2023/04/27 11:27:39;;;;;;;5.13;1.10;;;;;;;;;;5027206;28;20200;-67
2023/04/27 11:30:17;;;;;;;2.27;0.90;;;;;;;;;;5029166;28;20192;-67
2023/04/27 11:32:44;;;;;;;1.97;0.90;;;;;;;;;;5021608;28;20203;-65
2023/04/27 11:35:12;;;;;;;1.83;1.00;;;;;;;;;;5028748;28;20211;-65
2023/04/27 11:37:39;;;;;;;3.03;0.90;;;;;;;;;;5030152;28;20631;-64
2023/04/27 11:40:07;;;;;;;1.43;0.90;;;;;;;;;;5028349;28;20200;-66
2023/04/27 11:42:34;;;;;;;3.53;1.10;;;;;;;;;;5027596;28;20196;-64
2023/04/27 11:45:01;;;;;;;3.10;1.07;;;;;;;;;;5017664;28;20231;-66
2023/04/27 11:47:29;;;;;;;2.90;1.17;;;;;;;;;;5027187;28;20218;-65
2023/04/27 11:49:57;;;;;;;3.33;1.00;;;;;;;;;;5028735;28;20191;-66
2023/04/27 11:52:33;;;;;;;3.00;1.03;;;;;;;;;;5029694;28;20286;-64
2023/04/27 11:55:01;;;;;;;3.67;0.80;;;;;;;;;;5028642;28;20183;-65
2023/04/27 11:57:28;;;;;;;2.43;1.10;;;;;;;;;;5025272;28;20200;-64
2023/04/27 11:59:55;;;;;;;2.10;1.13;;;;;;;;;;5009028;28;20203;-62
2023/04/27 12:02:22;;;;;;;2.30;0.87;;;;;;;;;;5010971;28;20196;-64
2023/04/27 12:04:49;;;;;;;3.40;1.17;;;;;;;;;;5039622;28;20658;-61
2023/04/27 12:07:16;;;;;;;2.63;1.23;;;;;;;;;;5032592;28;20192;-62
2023/04/27 12:09:43;;;;;;;1.93;1.10;;;;;;;;;;5029296;28;20195;-61
2023/04/27 12:12:10;;;;;;;5.33;1.10;;;;;;;;;;5028628;28;20207;-62
2023/04/27 12:14:37;;;;;;;3.10;1.30;;;;;;;;;;5027628;28;20211;-63
2023/04/27 12:17:04;;;;;;;2.93;1.00;;;;;;;;;;5035706;28;20218;-64
2023/04/27 12:19:32;;;;;;;2.50;0.90;;;;;;;;;;5029103;28;20622;-63
2023/04/27 12:21:59;;;;;;;4.53;1.20;;;;;;;;;;5028680;28;20203;-63
2023/04/27 12:24:27;;;;;;;4.53;1.17;;;;;;;;;;5028656;28;20694;-63
2023/04/27 12:26:54;;;;;;;1.20;0.90;;;;;;;;;;5028058;28;20202;-62
2023/04/27 12:29:21;;;;;;;6.93;1.20;;;;;;;;;;5028695;28;20282;-64
2023/04/27 12:31:52;;;;;;;2.13;0.70;;;;;;;;;;5027686;28;20972;-69
2023/04/27 12:34:19;;;;;;;4.73;0.93;;;;;;;;;;5019860;28;20247;-67
2023/04/27 12:36:45;;;;;;;3.23;1.10;;;;;;;;;;5028010;28;20222;-68
2023/04/27 12:39:14;;;;;;;1.77;0.80;;;;;;;;;;5028554;28;20198;-69
2023/04/27 12:41:44;;;;;;;2.70;0.90;;;;;;;;;;5032020;28;20183;-70
2023/04/27 12:44:11;;;;;;;3.47;1.07;;;;;;;;;;5011054;28;20327;-66
2023/04/27 12:46:39;;;;;;;3.43;1.17;;;;;;;;;;5026527;28;20195;-69
2023/04/27 12:49:06;;;;;;;2.57;1.20;;;;;;;;;;5008586;28;20195;-63
2023/04/27 12:51:34;;;;;;;4.10;1.53;;;;;;;;;;5028583;28;20198;-65
2023/04/27 12:54:02;;;;;;;8.43;2.67;;;;;;;;;;5022517;28;20190;-67
2023/04/27 12:56:28;;;;;;;3.67;1.40;;;;;;;;;;5027279;28;20229;-64
2023/04/27 12:58:55;;;;;;;9.43;2.70;;;;;;;;;;5028172;28;20192;-66
2023/04/27 13:01:26;;;;;;;2.00;1.03;;;;;;;;;;5028090;28;20270;-68
2023/04/27 13:03:53;;;;;;;7.83;1.73;;;;;;;;;;5031119;28;20187;-65
2023/04/27 13:06:21;;;;;;;1.37;0.70;;;;;;;;;;5030527;28;20195;-65
2023/04/27 13:08:48;;;;;;;2.80;0.87;;;;;;;;;;5030554;28;20266;-65
2023/04/27 13:11:15;;;;;;;3.13;0.70;;;;;;;;;;5028493;28;20862;-66
2023/04/27 13:13:48;;;;;;;2.73;0.90;;;;;;;;;;5030462;28;20195;-69
2023/04/27 13:16:20;;;;;;;3.87;1.17;;;;;;;;;;5013173;28;20207;-66
2023/04/27 13:18:49;;;;;;;2.93;0.97;;;;;;;;;;5030866;28;20318;-65
2023/04/27 13:21:16;;;;;;;2.37;0.80;;;;;;;;;;5030505;28;20202;-66
2023/04/27 13:23:43;;;;;;;1.90;0.70;;;;;;;;;;5017082;28;20187;-63
2023/04/27 13:26:10;;;;;;;1.27;0.70;;;;;;;;;;5030399;28;20194;-67
2023/04/27 13:28:37;;;;;;;1.23;0.70;;;;;;;;;;5028368;28;20238;-65
2023/04/27 13:31:04;;;;;;;2.80;0.70;;;;;;;;;;5030592;28;20258;-67
2023/04/27 13:33:31;;;;;;;3.17;0.97;;;;;;;;;;5030760;28;20622;-67
2023/04/27 13:36:01;;;;;;;2.40;0.60;;;;;;;;;;5030148;28;20265;-67
2023/04/27 13:38:27;;;;;;;4.33;1.00;;;;;;;;;;5029394;28;20198;-67
2023/04/27 13:40:55;;;;;;;2.47;1.20;;;;;;;;;;5024351;28;20199;-64
2023/04/27 13:43:21;;;;;;;18.40;3.17;;;;;;;;;;5028737;28;20655;-65
2023/04/27 13:45:51;;;;;;;10.40;1.80;;;;;;;;;;5030477;28;20508;-64
2023/04/27 13:48:18;;;;;;;1.37;0.90;;;;;;;;;;5011480;28;20212;-65
2023/04/27 13:50:45;;;;;;;3.53;1.10;;;;;;;;;;5029980;28;20184;-65
2023/04/27 13:53:12;;;;;;;1.33;1.00;;;;;;;;;;5030126;28;20195;-65
2023/04/27 13:55:38;;;;;;;2.67;1.20;;;;;;;;;;5030166;28;20195;-66
2023/04/27 13:58:05;;;;;;;2.77;1.10;;;;;;;;;;5024792;28;20191;-65
2023/04/27 14:00:33;;;;;;;2.27;1.00;;;;;;;;;;5026665;28;20555;-64
2023/04/27 14:03:03;;;;;;;3.57;1.20;;;;;;;;;;5029279;28;20282;-64
2023/04/27 14:05:30;;;;;;;1.93;0.90;;;;;;;;;;5029847;28;20205;-64
2023/04/27 14:07:57;;;;;;;4.87;1.10;;;;;;;;;;5029590;28;20607;-65
2023/04/27 14:10:24;;;;;;;2.77;1.10;;;;;;;;;;5029644;28;20200;-65
2023/04/27 14:12:51;;;;;;;4.67;1.43;;;;;;;;;;5030431;28;20499;-65
2023/04/27 14:15:18;;;;;;;1.83;1.00;;;;;;;;;;5011086;28;20237;-65
2023/04/27 14:17:44;;;;;;;4.10;1.20;;;;;;;;;;5028886;28;20242;-63
2023/04/27 14:20:11;;;;;;;1.87;1.00;;;;;;;;;;5029601;28;20206;-65
2023/04/27 14:22:38;;;;;;;2.87;1.20;;;;;;;;;;5014715;28;20195;-65
2023/04/27 14:25:05;;;;;;;2.87;0.90;;;;;;;;;;5012281;28;20199;-65
2023/04/27 14:27:32;;;;;;;1.93;0.50;;;;;;;;;;5028526;28;20198;-64
2023/04/27 14:29:58;;;;;;;1.53;0.80;;;;;;;;;;5029515;28;20249;-64
2023/04/27 14:32:25;;;;;;;1.13;0.77;;;;;;;;;;5024899;28;20184;-63
2023/04/27 14:34:52;;;;;;;3.23;0.60;;;;;;;;;;5029189;28;20225;-64
2023/04/27 14:37:19;;;;;;;2.33;1.00;;;;;;;;;;5028180;28;20326;-64
2023/04/27 14:39:46;;;;;;;1.73;0.70;;;;;;;;;;5037209;28;20889;-64
2023/04/27 14:42:13;;;;;;;3.27;1.00;;;;;;;;;;5029313;28;20673;-64
2023/04/27 14:44:39;;;;;;;5.00;1.23;;;;;;;;;;5029166;28;20456;-64
2023/04/27 14:47:06;;;;;;;3.00;1.07;;;;;;;;;;5025112;28;20245;-63
2023/04/27 14:49:33;;;;;;;1.77;1.00;;;;;;;;;;5026378;28;20235;-64
2023/04/27 14:52:02;;;;;;;1.57;0.90;;;;;;;;;;5028163;28;20196;-63
2023/04/27 14:54:31;;;;;;;1.80;1.00;;;;;;;;;;5026255;28;20195;-66
2023/04/27 14:56:59;;;;;;;1.03;0.70;;;;;;;;;;5028975;28;20222;-63
2023/04/27 14:59:27;;;;;;;2.17;1.10;;;;;;;;;;5028717;28;20192;-65
2023/04/27 15:01:54;;;;;;;3.97;1.27;;;;;;;;;;5025546;28;20202;-67
2023/04/27 15:04:21;;;;;;;3.80;1.20;;;;;;;;;;5025984;28;20215;-67
2023/04/27 15:06:50;;;;;;;3.37;1.03;;;;;;;;;;5025740;28;20184;-67
2023/04/27 15:09:17;;;;;;;1.63;0.73;;;;;;;;;;5025503;28;20655;-65
2023/04/27 15:11:44;;;;;;;4.10;1.00;;;;;;;;;;5025797;28;20298;-67
2023/04/27 15:14:11;;;;;;;1.70;1.17;;;;;;;;;;5025878;28;20241;-64
2023/04/27 15:16:39;;;;;;;3.13;1.10;;;;;;;;;;5020923;28;20223;-66
2023/04/27 15:19:06;;;;;;;4.93;1.13;;;;;;;;;;5026019;28;20289;-66